Torm Horizon — OYNM2 — position and weather

sailwx.info

Track history (hours):
 
Tides and Currents Weather Stations Pressure Air Temp Water Temp Dewpoint Dewpoint Depression Visibility Wind Speed Wind Dir Waves Ship Positions

Torm Horizon

Last reported at 2017-Dec-10 13:14 UTC. Time now 2017-Dec-13 03:39 UTC.
Position N 22°59' E 117°32'.

Length 183 m; draft 7.5 m.

Type: Ship (hazmat cat B). MMSI: 220566000.

Date/timePositionNaut miles runAvg speedWind from/ knotsBaromVisibWave heightAir tempDewpointWater temp
2017-Dec-10 13:14N 22°59' E 117°32'313.2
2017-Dec-10 13:00N 23°02' E 117°34'3313.1
2017-Dec-10 10:31N 23°23' E 118°02'013.1
2017-Dec-10 10:30N 23°23' E 118°02'913.0
2017-Dec-10 09:46N 23°29' E 118°09'312.8
2017-Dec-10 09:30N 23°32' E 118°12'1412.6
2017-Dec-10 08:22N 23°41' E 118°24'49210.8
2017-Dec-08 10:57N 31°06' E 122°20'1112.2
2017-Dec-08 10:03N 31°12' E 122°09'315.0
2017-Dec-08 09:52N 31°13' E 122°06'  
2017-Dec-01 06:40N 24°17' E 118°14'213.0
2017-Dec-01 06:31N 24°18' E 118°12'612.3
2017-Dec-01 06:00N 24°23' E 118°07'611.8
2017-Dec-01 05:30N 24°26' E 118°02'  
Track history (hours):
 
Tides and Currents Weather Stations Pressure Air Temp Water Temp Dewpoint Dewpoint Depression Visibility Wind Speed Wind Dir Waves Ship Positions

Torm Horizon

Last reported at 2017-Dec-10 13:14 UTC. Time now 2017-Dec-13 03:39 UTC.
Position N 22°59' E 117°32'.

Length 183 m; draft 7.5 m.

Type: Ship (hazmat cat B). MMSI: 220566000.

Date/timePositionNaut miles runAvg speedWind from/ knotsBaromVisibWave heightAir tempDewpointWater temp
2017-Dec-10 13:14N 22°59' E 117°32'313.2
2017-Dec-10 13:00N 23°02' E 117°34'3313.1
2017-Dec-10 10:31N 23°23' E 118°02'013.1
2017-Dec-10 10:30N 23°23' E 118°02'913.0
2017-Dec-10 09:46N 23°29' E 118°09'312.8
2017-Dec-10 09:30N 23°32' E 118°12'1412.6
2017-Dec-10 08:22N 23°41' E 118°24'49210.8
2017-Dec-08 10:57N 31°06' E 122°20'1112.2
2017-Dec-08 10:03N 31°12' E 122°09'315.0
2017-Dec-08 09:52N 31°13' E 122°06'  
2017-Dec-01 06:40N 24°17' E 118°14'213.0
2017-Dec-01 06:31N 24°18' E 118°12'612.3
2017-Dec-01 06:00N 24°23' E 118°07'611.8
2017-Dec-01 05:30N 24°26' E 118°02'  

Dump ship's entire track history